NCAR-RAP Real-Time Weather Data

Output produced by METARs form (23 January 2018  15:38 UTC)
found at http://weather.rap.ucar.edu/surface/
 
ROIG 231100Z 02008KT 9999 SCT026 BKN032 20/15 Q1015
ROIG 231000Z 04012KT 9999 SCT026 BKN090 20/15 Q1015
ROIG 230900Z 04011KT 9999 FEW026 SCT090 20/15 Q1014
ROIG 230800Z 04012KT 9999 FEW026 21/15 Q1014
ROIG 230700Z 04012KT 9999 FEW026 22/15 Q1013
ROIG 230600Z 03012KT 9999 FEW027 23/15 Q1013
ROIG 230500Z 05010KT 9999 FEW030 SCT100 23/15 Q1013
ROIG 230400Z 05010KT 9999 FEW032 BKN100 23/15 Q1014
ROIG 230300Z 06011KT 9999 FEW032 BKN043 23/15 Q1015
ROIG 230200Z 05011KT 9999 SCT034 BKN043 22/14 Q1016
ROIG 230100Z 05012KT 9999 SCT030 BKN043 21/14 Q1016
ROIG 230000Z 04012KT 9999 FEW030 BKN038 BKN090 20/14 Q1016
ROIG 222300Z 05013KT 9999 FEW028 SCT040 BKN090 19/14 Q1016
ROIG 222200Z 05013KT 9999 FEW030 SCT040 BKN070 19/14 Q1015
ROIG 222100Z 04014KT 9999 BKN030 BKN050 19/14 Q1014
ROIG 221100Z 04019KT 9999 FEW024 SCT032 BKN090 18/14 Q1014
ROIG 221000Z 03020KT 9999 -SHRA FEW023 SCT033 BKN100 18/15 Q1014
ROIG 220900Z 02014KT 9999 -SHRA FEW023 SCT032 BKN080 18/15 Q1013
ROIG 220800Z 02018KT 9999 VCSH FEW021 SCT028 BKN090 19/15 Q1012
ROIG 220700Z 02013KT 9999 FEW019 SCT024 BKN090 19/16 Q1011
ROIG 220600Z 02013KT 9999 SCT021 BKN080 20/16 Q1011
ROIG 220500Z 01015KT 9999 FEW018 BKN024 BKN080 20/16 Q1011
ROIG 220400Z 02010KT 9999 SCT018 BKN024 BKN070 20/16 Q1012
ROIG 220300Z 01012KT 300V070 9999 SCT014 BKN020 BKN070 20/17 Q1013
ROIG 220200Z 35012G24KT 320V030 9999 SCT014 BKN023 BKN060 21/18 Q1013
ROIG 220100Z 34017KT 9999 -SHRA SCT011 BKN020 BKN060 22/19 Q1013
ROIG 220000Z 30010KT 260V340 9999 VCSH FEW011 SCT017 BKN050 21/20 Q1012
ROIG 212300Z 32006KT 9999 -SHRA FEW007 SCT020 BKN037 21/21 Q1011
ROIG 212247Z 31006KT 9999 -SHRA FEW007 SCT017 BKN029 21/21 Q1011 RMK 1ST007 4CU017 7CU029 A2988
ROIG 212221Z 35008KT 7000 R04/1300VP1800U SHRA FEW005 BKN015 BKN025 21/21 Q1011 RMK 1ST005 6CU015 7CU025 A2987
ROIG 212212Z 24003KT 200V290 3000 R04/1100VP1800D +SHRA FEW005 BKN015 BKN025 21/21 Q1011 RMK 1ST005 6CU015 7CU025 A2986
ROIG 212200Z VRB01KT 3000 R04/0900VP1800U SHRA FEW009 BKN015 BKN025 21/21 Q1011
ROIG 212145Z 31004KT 260V330 3000 +SHRA SCT010 BKN029 21/21 Q1011 RMK 4CU010 6CU029 A2987
ROIG 212100Z 20002KT 9999 VCSH SCT035 BKN050 21/21 Q1010
ROIG 211100Z 10010KT 9999 FEW020 BKN040 23/18 Q1013
ROIG 211000Z 09009KT 9999 FEW020 BKN045 23/18 Q1013
ROIG 210900Z 09011KT 9999 SCT020 BKN050 23/19 Q1013
ROIG 210800Z 06013KT 9999 SCT018 BKN030 BKN050 22/19 Q1013
ROIG 210700Z 06011KT 9999 SCT018 BKN040 BKN060 23/19 Q1013
ROIG 210600Z 05013KT 9999 -SHRA FEW018 SCT032 BKN050 22/19 Q1013
ROIG 210500Z 05012KT 9999 FEW019 BKN060 23/18 Q1014
ROIG 210400Z 05012KT 9999 SCT020 BKN060 24/19 Q1014